Time;durP1;ratioP1;P1;durP2;ratioP2;P2;SDS_P1;SDS_P2;PMS_P1;PMS_P2;Temp;Humidity;BMP_temperature;BMP_pressure;BME280_temperature;BME280_humidity;BME280_pressure;Samples;Min_cycle;Max_cycle;Signal;HPM_P1;HPM_P2
2023/07/20 00:00:53;;;;;;;11.75;10.30;;;16.60;99.90;;;;;;5008376;28;20040;-78
2023/07/20 00:03:22;;;;;;;11.98;8.65;;;16.50;99.90;;;;;;5009757;28;20117;-78
2023/07/20 00:05:49;;;;;;;12.77;9.75;;;16.50;99.90;;;;;;5009662;28;20499;-78
2023/07/20 00:08:16;;;;;;;8.60;7.70;;;16.50;99.90;;;;;;5005530;28;20428;-75
2023/07/20 00:10:42;;;;;;;7.68;6.22;;;16.50;99.90;;;;;;5003391;28;20505;-78
2023/07/20 00:13:07;;;;;;;7.72;6.78;;;16.50;99.90;;;;;;5010576;28;20026;-78
2023/07/20 00:15:33;;;;;;;13.75;8.35;;;16.50;99.90;;;;;;5006376;28;20467;-79
2023/07/20 00:17:59;;;;;;;10.40;8.52;;;16.50;99.90;;;;;;5005655;28;20094;-79
2023/07/20 00:20:25;;;;;;;13.27;9.43;;;16.50;99.90;;;;;;5001601;28;20026;-75
2023/07/20 00:22:51;;;;;;;9.65;8.65;;;16.40;99.90;;;;;;4995650;28;20026;-76
2023/07/20 00:25:18;;;;;;;9.30;8.23;;;16.30;99.90;;;;;;5060960;28;20383;-78
2023/07/20 00:27:43;;;;;;;9.82;8.48;;;16.40;99.90;;;;;;4998448;28;20018;-79
2023/07/20 00:30:09;;;;;;;12.18;8.73;;;16.40;99.90;;;;;;5001457;28;20034;-78
2023/07/20 00:32:35;;;;;;;11.55;8.93;;;16.40;99.90;;;;;;5004498;28;20071;-78
2023/07/20 00:35:01;;;;;;;12.07;10.93;;;16.30;99.90;;;;;;5000460;28;20030;-75
2023/07/20 00:37:26;;;;;;;11.02;9.93;;;16.30;99.90;;;;;;5010400;28;20461;-75
2023/07/20 00:39:53;;;;;;;13.45;9.98;;;16.30;99.90;;;;;;5008861;28;20765;-75
2023/07/20 00:42:19;;;;;;;10.80;9.52;;;16.30;99.90;;;;;;5010379;28;20038;-78
2023/07/20 00:44:44;;;;;;;11.32;10.10;;;16.30;99.90;;;;;;4998650;28;20025;-75
2023/07/20 00:47:10;;;;;;;12.73;10.05;;;16.20;99.90;;;;;;5009198;28;20022;-78
2023/07/20 00:49:37;;;;;;;14.05;11.13;;;16.20;99.90;;;;;;5001259;28;20057;-75
2023/07/20 00:52:06;;;;;;;12.90;10.40;;;16.20;99.90;;;;;;5009065;28;20022;-76
2023/07/20 00:54:32;;;;;;;11.07;9.93;;;16.20;99.90;;;;;;5002519;28;20053;-78
2023/07/20 00:56:58;;;;;;;11.43;9.02;;;16.20;99.90;;;;;;4996562;28;20504;-78
2023/07/20 00:59:24;;;;;;;11.15;8.77;;;16.20;99.90;;;;;;5009935;28;20108;-79
2023/07/20 01:01:50;;;;;;;11.02;8.25;;;16.00;99.90;;;;;;5008206;28;20125;-76
2023/07/20 01:04:15;;;;;;;9.40;7.70;;;15.80;99.90;;;;;;5008742;28;20033;-76
2023/07/20 01:07:00;;;;;;;8.55;7.70;;;15.80;99.90;;;;;;5009944;28;20071;-78
2023/07/20 01:09:42;;;;;;;8.77;7.82;;;15.80;99.90;;;;;;4998680;28;20030;-76
2023/07/20 01:12:17;;;;;;;12.13;8.40;;;15.70;99.90;;;;;;4999344;28;20054;-78
2023/07/20 01:14:43;;;;;;;14.52;9.32;;;15.70;99.90;;;;;;5000039;28;20123;-78
2023/07/20 01:17:08;;;;;;;12.48;9.27;;;15.80;99.90;;;;;;5009666;28;20033;-76
2023/07/20 01:19:34;;;;;;;14.10;10.05;;;15.80;99.90;;;;;;5001233;28;20030;-78
2023/07/20 01:22:11;;;;;;;13.40;12.00;;;15.90;99.90;;;;;;5011162;28;20033;-79
2023/07/20 01:25:08;;;;;;;13.27;10.00;;;16.00;99.90;;;;;;5006001;28;20037;-79
2023/07/20 01:28:01;;;;;;;14.02;12.55;;;16.10;99.90;;;;;;5013253;28;20022;-78
2023/07/20 01:30:54;;;;;;;16.88;15.13;;;16.30;99.90;;;;;;4997944;28;20495;-76
2023/07/20 01:33:21;;;;;;;19.55;14.38;;;16.40;99.90;;;;;;5012123;28;20479;-76
2023/07/20 01:35:53;;;;;;;12.05;9.50;;;16.50;99.90;;;;;;5009014;28;20105;-78
2023/07/20 01:38:19;;;;;;;15.27;9.75;;;16.60;99.90;;;;;;5012034;28;20018;-79
2023/07/20 01:40:45;;;;;;;12.05;8.57;;;16.60;99.90;;;;;;5008798;28;20026;-76
2023/07/20 01:43:12;;;;;;;13.20;9.52;;;16.60;99.90;;;;;;5013139;28;20025;-75
2023/07/20 01:45:37;;;;;;;11.35;8.65;;;16.70;99.90;;;;;;5011514;28;20065;-79
2023/07/20 01:48:03;;;;;;;15.13;10.45;;;16.70;99.90;;;;;;5011390;28;20057;-78
2023/07/20 01:50:29;;;;;;;12.48;8.60;;;16.80;99.90;;;;;;5011278;28;20049;-78
2023/07/20 01:52:55;;;;;;;10.80;7.82;;;16.80;99.90;;;;;;5013012;28;20029;-75
2023/07/20 01:55:20;;;;;;;14.85;8.55;;;16.90;99.90;;;;;;5000759;28;20030;-75
2023/07/20 01:57:46;;;;;;;12.65;8.43;;;16.90;99.90;;;;;;5013016;28;20367;-76
2023/07/20 02:00:12;;;;;;;13.10;9.40;;;16.90;99.90;;;;;;5001886;28;20430;-75
2023/07/20 02:02:37;;;;;;;11.52;7.88;;;16.90;99.90;;;;;;5012850;28;20045;-76
2023/07/20 02:05:03;;;;;;;15.70;8.82;;;16.90;99.90;;;;;;5002602;28;20022;-76
2023/07/20 02:07:29;;;;;;;12.68;8.95;;;16.90;99.90;;;;;;5011662;28;20057;-76
2023/07/20 02:09:54;;;;;;;13.32;8.88;;;16.90;99.90;;;;;;5005883;28;20026;-78
2023/07/20 02:12:20;;;;;;;16.83;8.82;;;16.90;99.90;;;;;;5012668;28;20493;-75
2023/07/20 02:14:45;;;;;;;10.38;7.65;;;16.80;99.90;;;;;;5008440;28;20030;-75
2023/07/20 02:17:11;;;;;;;12.82;8.35;;;16.80;99.90;;;;;;5008263;28;20418;-78
2023/07/20 02:19:37;;;;;;;12.23;8.32;;;16.80;99.90;;;;;;5008962;28;20060;-78
2023/07/20 02:22:03;;;;;;;12.65;8.95;;;16.80;99.90;;;;;;5011151;28;20066;-79
2023/07/20 02:24:28;;;;;;;12.25;9.23;;;16.80;99.90;;;;;;5011570;28;20115;-75
2023/07/20 02:26:54;;;;;;;11.50;9.60;;;16.80;99.90;;;;;;5012567;28;20026;-75
2023/07/20 02:29:20;;;;;;;13.35;8.80;;;16.70;99.90;;;;;;5007913;28;20057;-76
2023/07/20 02:31:45;;;;;;;10.52;8.98;;;16.50;99.90;;;;;;5001350;28;20018;-75
2023/07/20 02:34:11;;;;;;;11.07;8.48;;;16.50;99.90;;;;;;5010410;28;20046;-75
2023/07/20 02:36:36;;;;;;;13.82;9.40;;;16.40;99.90;;;;;;5012462;28;20455;-78
2023/07/20 02:39:03;;;;;;;11.75;8.15;;;16.40;99.90;;;;;;5009884;28;20018;-75
2023/07/20 02:41:33;;;;;;;11.25;7.85;;;16.40;99.90;;;;;;5000691;28;20037;-76
2023/07/20 02:43:58;;;;;;;11.50;7.88;;;16.40;99.90;;;;;;5010674;28;20019;-75
2023/07/20 02:46:24;;;;;;;9.90;8.00;;;16.30;99.90;;;;;;5002152;28;20026;-75
2023/07/20 02:48:50;;;;;;;15.07;11.45;;;16.30;99.90;;;;;;5010247;28;20066;-75
2023/07/20 02:51:15;;;;;;;75.15;69.13;;;16.30;99.90;;;;;;5010805;28;20494;-75
2023/07/20 02:53:41;;;;;;;17.92;16.05;;;16.30;99.90;;;;;;5010520;28;20121;-75
2023/07/20 02:56:07;;;;;;;64.57;59.45;;;16.20;99.90;;;;;;4999209;28;20033;-75
2023/07/20 02:58:36;;;;;;;167.95;154.50;;;16.20;99.90;;;;;;5011984;28;20046;-75
2023/07/20 03:01:02;;;;;;;19.65;17.77;;;16.20;99.90;;;;;;5004944;28;20086;-76
2023/07/20 03:03:28;;;;;;;39.78;36.63;;;16.10;99.90;;;;;;5006015;28;20022;-75
2023/07/20 03:05:55;;;;;;;16.42;14.82;;;16.10;99.90;;;;;;5006011;28;20038;-79
2023/07/20 03:08:21;;;;;;;13.75;12.35;;;16.10;99.90;;;;;;5011484;28;20026;-79
2023/07/20 03:10:47;;;;;;;16.75;14.20;;;16.00;99.90;;;;;;5007451;28;20034;-75
2023/07/20 03:13:13;;;;;;;19.90;18.30;;;16.00;99.90;;;;;;5011351;28;20025;-76
2023/07/20 03:15:39;;;;;;;14.15;12.95;;;16.00;99.90;;;;;;5023958;28;20036;-75
2023/07/20 03:18:05;;;;;;;9.27;6.35;;;16.10;99.90;;;;;;5010196;28;20018;-78
2023/07/20 03:20:31;;;;;;;9.45;6.03;;;16.00;99.90;;;;;;5008481;28;20018;-75
2023/07/20 03:22:57;;;;;;;10.90;6.70;;;16.00;99.90;;;;;;5010120;28;20422;-75
2023/07/20 03:25:22;;;;;;;21.40;19.58;;;16.00;99.90;;;;;;5009070;28;20030;-76
2023/07/20 03:27:48;;;;;;;30.02;27.38;;;16.10;99.90;;;;;;5011542;28;20041;-75
2023/07/20 03:30:14;;;;;;;70.35;64.35;;;15.90;99.90;;;;;;5011374;28;20047;-79
2023/07/20 03:32:40;;;;;;;13.45;12.20;;;15.90;99.90;;;;;;5010303;28;20482;-75
2023/07/20 03:35:06;;;;;;;24.27;21.58;;;15.90;99.90;;;;;;5003964;28;20026;-78
2023/07/20 03:37:31;;;;;;;28.35;25.83;;;15.90;99.90;;;;;;5008300;28;20420;-76
2023/07/20 03:39:57;;;;;;;21.70;19.48;;;15.80;99.90;;;;;;5020196;28;20111;-75
2023/07/20 03:42:23;;;;;;;23.70;21.17;;;15.80;99.90;;;;;;5008243;28;20048;-75
2023/07/20 03:44:48;;;;;;;23.05;20.75;;;15.80;99.90;;;;;;5005996;28;20088;-78
2023/07/20 03:47:14;;;;;;;9.73;7.85;;;15.80;99.90;;;;;;5007017;28;20014;-75
2023/07/20 03:49:40;;;;;;;11.55;10.45;;;15.70;99.90;;;;;;5008010;28;20109;-78
2023/07/20 03:52:05;;;;;;;10.80;6.00;;;15.70;99.90;;;;;;5007933;28;20053;-75
2023/07/20 03:54:31;;;;;;;7.60;5.80;;;15.60;99.90;;;;;;5009405;28;20101;-78
2023/07/20 03:56:58;;;;;;;8.68;6.70;;;15.50;99.90;;;;;;5006615;28;20029;-75
2023/07/20 03:59:24;;;;;;;8.02;6.00;;;15.60;99.90;;;;;;5010694;28;20038;-79
2023/07/20 04:01:50;;;;;;;7.60;5.68;;;15.50;99.90;;;;;;5006729;28;20048;-75
2023/07/20 04:04:17;;;;;;;7.35;6.13;;;15.50;99.90;;;;;;5011080;28;20448;-75
2023/07/20 04:06:44;;;;;;;8.50;5.13;;;15.60;99.90;;;;;;5008589;28;20033;-75
2023/07/20 04:09:11;;;;;;;6.53;5.88;;;15.60;99.90;;;;;;5009698;28;20029;-75
2023/07/20 04:11:37;;;;;;;30.48;27.88;;;15.60;99.90;;;;;;5009987;28;20057;-79
2023/07/20 04:14:02;;;;;;;27.17;24.85;;;15.50;99.90;;;;;;5010802;28;20498;-75
2023/07/20 04:16:28;;;;;;;8.85;5.63;;;15.50;99.90;;;;;;5010503;28;20474;-76
2023/07/20 04:18:57;;;;;;;28.65;25.95;;;15.50;99.90;;;;;;5010796;28;20033;-79
2023/07/20 04:21:23;;;;;;;48.55;44.13;;;15.50;99.90;;;;;;4998223;28;20554;-75
2023/07/20 04:23:48;;;;;;;15.95;11.57;;;15.50;99.90;;;;;;5010763;28;20030;-75
2023/07/20 04:26:14;;;;;;;10.50;8.38;;;15.50;99.90;;;;;;5001322;28;20387;-79
2023/07/20 04:28:42;;;;;;;7.78;6.22;;;15.50;99.90;;;;;;5009647;28;20030;-78
2023/07/20 04:31:15;;;;;;;12.13;6.18;;;15.50;99.90;;;;;;5006557;28;20352;-79
2023/07/20 04:33:41;;;;;;;38.03;34.22;;;15.40;99.90;;;;;;5010753;28;20041;-76
2023/07/20 04:36:07;;;;;;;207.70;188.10;;;15.40;99.90;;;;;;5002460;28;20447;-75
2023/07/20 04:38:33;;;;;;;101.22;92.28;;;15.30;99.90;;;;;;5009205;28;20034;-78
2023/07/20 04:40:59;;;;;;;47.45;43.33;;;15.30;99.90;;;;;;5004082;28;20037;-79
2023/07/20 04:43:25;;;;;;;9.55;7.00;;;15.30;99.90;;;;;;5009250;28;20104;-78
2023/07/20 04:45:50;;;;;;;10.52;8.25;;;15.30;99.90;;;;;;5005557;28;20079;-76
2023/07/20 04:48:17;;;;;;;8.23;6.85;;;15.20;99.90;;;;;;5009770;28;20379;-75
2023/07/20 04:50:44;;;;;;;9.80;7.05;;;15.30;99.90;;;;;;5004995;28;20566;-75
2023/07/20 04:53:13;;;;;;;37.53;33.72;;;15.30;99.90;;;;;;5010172;28;20090;-75
2023/07/20 04:55:40;;;;;;;21.58;17.75;;;15.30;99.90;;;;;;5006010;28;20060;-75
2023/07/20 04:58:06;;;;;;;12.93;11.27;;;15.30;99.90;;;;;;5010156;28;20033;-75
2023/07/20 05:00:33;;;;;;;9.00;7.57;;;15.40;99.90;;;;;;5007946;28;20554;-75
2023/07/20 05:02:59;;;;;;;7.43;6.70;;;15.30;99.90;;;;;;5009976;28;20018;-79
2023/07/20 05:05:24;;;;;;;11.77;9.90;;;15.40;99.90;;;;;;5009861;28;20448;-79
2023/07/20 05:07:50;;;;;;;9.80;6.93;;;15.40;99.90;;;;;;4997357;28;20031;-75
2023/07/20 05:10:16;;;;;;;7.00;6.22;;;15.40;99.90;;;;;;5007800;28;20019;-75
2023/07/20 05:12:42;;;;;;;7.65;5.88;;;15.40;99.90;;;;;;5008666;28;20126;-79
2023/07/20 05:15:08;;;;;;;7.78;5.53;;;15.40;99.90;;;;;;5005024;28;20023;-79
2023/07/20 05:17:34;;;;;;;7.55;5.22;;;15.40;99.90;;;;;;4999617;28;20018;-75
2023/07/20 05:19:59;;;;;;;6.93;5.10;;;15.30;99.90;;;;;;5007089;28;20482;-75
2023/07/20 05:22:25;;;;;;;4.75;3.75;;;15.30;99.90;;;;;;5018208;28;20031;-75
2023/07/20 05:24:50;;;;;;;7.60;5.00;;;15.40;99.90;;;;;;5004019;28;20113;-75
2023/07/20 05:27:16;;;;;;;5.85;4.25;;;15.40;99.90;;;;;;5001027;28;20018;-75
2023/07/20 05:29:46;;;;;;;5.57;4.78;;;15.40;99.90;;;;;;5009762;28;20030;-78
2023/07/20 05:32:15;;;;;;;4.32;3.90;;;15.40;99.90;;;;;;5007980;28;20030;-79
2023/07/20 05:34:40;;;;;;;5.60;3.78;;;15.50;99.90;;;;;;5008096;28;20090;-79
2023/07/20 05:37:06;;;;;;;9.32;8.38;;;15.50;99.90;;;;;;5003882;28;20463;-79
2023/07/20 05:39:34;;;;;;;10.35;9.15;;;15.60;99.90;;;;;;5010089;28;20061;-79
2023/07/20 05:42:00;;;;;;;8.43;7.38;;;15.70;99.90;;;;;;5003934;28;20038;-75
2023/07/20 05:44:26;;;;;;;5.72;5.18;;;15.70;99.90;;;;;;5008740;28;20395;-76
2023/07/20 05:46:51;;;;;;;6.97;4.50;;;15.80;99.90;;;;;;5008013;28;20026;-79
2023/07/20 05:49:17;;;;;;;8.27;5.25;;;15.70;99.90;;;;;;5007532;28;20050;-79
2023/07/20 05:51:43;;;;;;;6.22;4.70;;;15.80;99.90;;;;;;5004154;28;20041;-79
2023/07/20 05:54:08;;;;;;;7.55;5.57;;;15.90;99.90;;;;;;5000257;28;20099;-79
2023/07/20 05:56:34;;;;;;;6.68;5.68;;;15.90;99.90;;;;;;4994663;28;20031;-79
2023/07/20 05:58:59;;;;;;;9.77;5.72;;;15.90;99.90;;;;;;5006441;28;20036;-76
2023/07/20 06:01:27;;;;;;;15.07;6.75;;;16.00;99.90;;;;;;5007571;28;20086;-75
2023/07/20 06:03:53;;;;;;;9.57;6.50;;;16.10;99.90;;;;;;5008079;28;20114;-75
2023/07/20 06:06:18;;;;;;;6.28;5.45;;;16.20;99.90;;;;;;4997888;28;20600;-76
2023/07/20 06:08:44;;;;;;;8.50;5.95;;;16.10;99.90;;;;;;5010084;28;20022;-75
2023/07/20 06:11:10;;;;;;;7.00;5.55;;;16.20;99.90;;;;;;5003639;28;20034;-76
2023/07/20 06:13:35;;;;;;;8.45;5.57;;;16.40;99.90;;;;;;4999434;28;20475;-79
2023/07/20 06:16:01;;;;;;;7.10;5.68;;;16.60;99.90;;;;;;4992712;28;20026;-79
2023/07/20 06:18:27;;;;;;;5.88;4.85;;;16.70;99.90;;;;;;4995125;28;20066;-76
2023/07/20 06:20:53;;;;;;;7.63;5.05;;;16.70;99.90;;;;;;5004388;28;20044;-76
2023/07/20 06:23:19;;;;;;;6.28;5.45;;;16.90;99.90;;;;;;4994675;28;20522;-76
2023/07/20 06:25:45;;;;;;;7.55;5.30;;;16.90;99.90;;;;;;4995353;28;20113;-78
2023/07/20 06:28:10;;;;;;;10.57;6.10;;;17.10;99.90;;;;;;5007292;28;20129;-79
2023/07/20 06:30:36;;;;;;;12.07;6.05;;;17.40;99.90;;;;;;4999113;28;20037;-79
2023/07/20 06:33:02;;;;;;;6.68;5.88;;;17.60;99.90;;;;;;5009530;28;20527;-79
2023/07/20 06:35:27;;;;;;;7.25;4.72;;;17.80;99.90;;;;;;5010471;28;20026;-79
2023/07/20 06:37:53;;;;;;;6.20;4.57;;;17.80;99.90;;;;;;5009589;28;20037;-79
2023/07/20 06:40:19;;;;;;;14.40;5.78;;;17.90;99.90;;;;;;5006326;28;20034;-79
2023/07/20 06:42:44;;;;;;;5.85;4.53;;;17.90;99.90;;;;;;5002321;28;20127;-78
2023/07/20 06:45:10;;;;;;;6.55;4.63;;;18.00;99.90;;;;;;5012219;28;20025;-79
2023/07/20 06:47:39;;;;;;;8.23;4.97;;;18.20;99.90;;;;;;5004218;28;20109;-79
2023/07/20 06:50:06;;;;;;;5.00;4.43;;;18.30;99.90;;;;;;5011779;28;20042;-76
2023/07/20 06:52:32;;;;;;;5.25;4.13;;;18.50;99.90;;;;;;5008170;28;20510;-76
2023/07/20 06:54:58;;;;;;;5.97;3.65;;;18.70;99.90;;;;;;5010425;28;20022;-78
2023/07/20 06:57:23;;;;;;;5.35;4.85;;;19.00;99.90;;;;;;4998740;28;20030;-79
2023/07/20 06:59:49;;;;;;;7.40;4.18;;;19.30;99.90;;;;;;5010386;28;20056;-76
2023/07/20 07:02:15;;;;;;;7.03;5.43;;;19.30;99.90;;;;;;5008294;28;20038;-76
2023/07/20 07:04:41;;;;;;;11.43;6.50;;;19.10;99.90;;;;;;4999158;28;20041;-79
2023/07/20 07:07:07;;;;;;;7.75;5.95;;;18.90;99.90;;;;;;5006085;28;20053;-79
2023/07/20 07:09:33;;;;;;;7.93;6.10;;;18.90;99.90;;;;;;5007450;28;20065;-79
2023/07/20 07:11:58;;;;;;;13.90;6.45;;;18.70;99.90;;;;;;5002610;28;20026;-76
2023/07/20 07:14:24;;;;;;;11.63;7.38;;;18.60;99.90;;;;;;4996220;28;20475;-76
2023/07/20 07:16:50;;;;;;;14.32;9.30;;;18.80;99.90;;;;;;4997002;28;20523;-76
2023/07/20 07:19:15;;;;;;;16.23;8.40;;;18.60;99.90;;;;;;4996903;28;20018;-76
2023/07/20 07:21:41;;;;;;;14.35;9.95;;;18.80;99.90;;;;;;5003661;28;20041;-76
2023/07/20 07:24:07;;;;;;;13.73;9.50;;;19.20;99.90;;;;;;5002491;28;20033;-77
2023/07/20 07:26:33;;;;;;;18.05;10.45;;;19.50;99.90;;;;;;5008223;28;20033;-77
2023/07/20 07:28:59;;;;;;;16.58;10.65;;;19.50;99.90;;;;;;5009667;28;20026;-79
2023/07/20 07:31:30;;;;;;;16.15;8.80;;;19.60;99.90;;;;;;4991994;28;20026;-79
2023/07/20 07:33:56;;;;;;;9.48;5.28;;;19.60;99.90;;;;;;4991342;28;20038;-79
2023/07/20 07:36:21;;;;;;;7.95;3.90;;;19.30;99.90;;;;;;4997735;28;20014;-79
2023/07/20 07:38:47;;;;;;;7.07;3.53;;;19.20;99.90;;;;;;4996606;28;20031;-76
2023/07/20 07:41:13;;;;;;;4.80;3.42;;;19.30;99.90;;;;;;4997569;28;20478;-76
2023/07/20 07:43:39;;;;;;;2.95;2.75;;;19.10;99.90;;;;;;5009629;28;20060;-76
2023/07/20 07:46:05;;;;;;;4.35;3.05;;;19.30;99.90;;;;;;5006850;28;20046;-76
2023/07/20 07:48:30;;;;;;;3.85;2.47;;;19.30;99.90;;;;;;5004014;28;20030;-77
2023/07/20 07:50:56;;;;;;;2.58;2.38;;;19.60;99.90;;;;;;5009257;28;20390;-76
2023/07/20 07:53:22;;;;;;;3.13;2.17;;;19.80;99.90;;;;;;5005742;28;20025;-76
2023/07/20 07:55:48;;;;;;;2.10;1.95;;;19.80;93.60;;;;;;5009622;28;20033;-78
2023/07/20 07:58:13;;;;;;;2.80;2.10;;;20.00;97.90;;;;;;5007733;28;20041;-76
2023/07/20 08:00:39;;;;;;;2.22;2.00;;;20.10;91.70;;;;;;5009558;28;20021;-78
2023/07/20 08:03:07;;;;;;;3.72;2.58;;;20.10;89.70;;;;;;5002020;28;20083;-79
2023/07/20 08:05:33;;;;;;;4.25;2.65;;;19.80;93.50;;;;;;5009316;28;20030;-79
2023/07/20 08:07:59;;;;;;;5.40;3.17;;;19.60;94.90;;;;;;5003433;28;20047;-79
2023/07/20 08:10:25;;;;;;;6.57;2.63;;;19.80;97.10;;;;;;5010457;28;20035;-79
2023/07/20 08:12:53;;;;;;;4.35;2.80;;;19.60;94.80;;;;;;5001683;28;20443;-79
2023/07/20 08:15:18;;;;;;;4.28;3.30;;;19.70;99.90;;;;;;5009206;28;20067;-79
2023/07/20 08:17:44;;;;;;;5.65;2.70;;;19.50;98.90;;;;;;5005563;28;20029;-79
2023/07/20 08:20:13;;;;;;;3.95;3.03;;;19.60;98.20;;;;;;5010285;28;20053;-79
2023/07/20 08:22:42;;;;;;;5.60;3.00;;;19.80;97.00;;;;;;5003485;28;20550;-79
2023/07/20 08:25:08;;;;;;;4.82;2.60;;;19.60;98.20;;;;;;5009225;28;20025;-79
2023/07/20 08:27:34;;;;;;;6.20;3.05;;;19.60;95.80;;;;;;5008752;28;20034;-79
2023/07/20 08:30:00;;;;;;;5.95;3.47;;;19.90;95.70;;;;;;5003364;28;20031;-78
2023/07/20 08:32:26;;;;;;;6.18;3.17;;;20.20;91.50;;;;;;4998710;28;20025;-79
2023/07/20 08:34:52;;;;;;;3.85;2.88;;;20.40;87.80;;;;;;5009463;28;20026;-78
2023/07/20 08:37:18;;;;;;;4.85;3.55;;;20.20;86.50;;;;;;5005211;28;20026;-79
2023/07/20 08:39:43;;;;;;;3.30;3.00;;;20.00;90.40;;;;;;5010201;28;20034;-78
2023/07/20 08:42:10;;;;;;;4.68;2.63;;;19.80;89.20;;;;;;5008315;28;20041;-78
2023/07/20 08:44:38;;;;;;;3.50;2.83;;;19.60;94.10;;;;;;4999984;28;20146;-79
2023/07/20 08:47:05;;;;;;;2.95;2.70;;;19.60;99.90;;;;;;4999221;28;20034;-79
2023/07/20 08:49:35;;;;;;;5.25;2.80;;;19.70;99.90;;;;;;4991062;28;20547;-78
2023/07/20 08:52:01;;;;;;;4.57;3.25;;;19.60;96.60;;;;;;4998087;28;20030;-78
2023/07/20 08:54:33;;;;;;;3.17;2.97;;;19.50;92.70;;;;;;4990910;28;20018;-78
2023/07/20 08:57:03;;;;;;;2.88;2.35;;;19.60;92.40;;;;;;4996250;28;20022;-76
2023/07/20 08:59:30;;;;;;;4.97;3.03;;;20.10;93.80;;;;;;5008147;28;20105;-78
2023/07/20 09:01:56;;;;;;;4.75;3.03;;;20.20;87.90;;;;;;5004803;28;20035;-76
2023/07/20 09:04:22;;;;;;;5.75;2.33;;;20.30;89.80;;;;;;5007265;28;20036;-78
2023/07/20 09:06:49;;;;;;;2.65;2.45;;;20.40;90.60;;;;;;5004150;28;20109;-78
2023/07/20 09:09:15;;;;;;;3.13;2.35;;;20.40;87.00;;;;;;5007440;28;20018;-78
2023/07/20 09:11:41;;;;;;;4.43;2.70;;;20.70;87.90;;;;;;5007143;28;20053;-78
2023/07/20 09:14:08;;;;;;;2.70;2.50;;;21.00;88.50;;;;;;5005923;28;20014;-78
2023/07/20 09:16:52;;;;;;;4.18;2.92;;;21.10;86.90;;;;;;5008677;28;20049;-79
2023/07/20 09:19:18;;;;;;;2.60;2.40;;;21.10;81.80;;;;;;4996848;28;20036;-79
2023/07/20 09:21:51;;;;;;;3.03;2.72;;;21.00;80.90;;;;;;5006447;28;20103;-79
2023/07/20 09:24:20;;;;;;;3.25;2.88;;;21.20;83.20;;;;;;5008719;28;20028;-76
2023/07/20 09:26:50;;;;;;;4.13;2.58;;;21.60;86.60;;;;;;5007144;28;20018;-79
2023/07/20 09:29:20;;;;;;;4.80;2.85;;;22.10;80.30;;;;;;5004840;28;20093;-79
2023/07/20 09:32:18;;;;;;;3.58;2.80;;;22.30;77.00;;;;;;4994501;28;20030;-76
2023/07/20 09:34:43;;;;;;;3.95;3.35;;;21.80;73.10;;;;;;4994535;28;20042;-76
2023/07/20 09:37:09;;;;;;;3.25;3.00;;;21.80;76.80;;;;;;5003844;28;20098;-79
2023/07/20 09:39:45;;;;;;;3.17;2.85;;;21.60;77.50;;;;;;5009396;28;20108;-77
2023/07/20 09:42:14;;;;;;;4.35;2.95;;;21.40;79.90;;;;;;5005583;28;20080;-77
2023/07/20 09:44:43;;;;;;;3.72;3.05;;;21.40;83.50;;;;;;5011507;28;20030;-79
2023/07/20 09:47:09;;;;;;;4.13;3.00;;;21.40;78.90;;;;;;5011227;28;20102;-76
2023/07/20 09:49:41;;;;;;;3.88;3.42;;;21.50;77.20;;;;;;5012726;28;20133;-76
2023/07/20 09:52:09;;;;;;;5.25;2.85;;;21.50;78.80;;;;;;5011595;28;20022;-76
2023/07/20 09:54:37;;;;;;;6.85;4.72;;;21.60;77.80;;;;;;5013030;28;20067;-79
2023/07/20 09:57:06;;;;;;;5.00;3.97;;;21.50;77.90;;;;;;5010592;28;20112;-79
2023/07/20 09:59:31;;;;;;;6.38;4.32;;;21.30;77.90;;;;;;4999413;28;20061;-78
2023/07/20 10:01:59;;;;;;;3.95;3.55;;;21.20;78.20;;;;;;5008304;28;20061;-79
2023/07/20 10:04:26;;;;;;;4.25;3.72;;;21.20;79.00;;;;;;5010555;28;20030;-79
2023/07/20 10:06:55;;;;;;;5.75;4.03;;;21.10;78.70;;;;;;5010522;28;20029;-79
2023/07/20 10:09:24;;;;;;;4.25;3.83;;;21.10;80.80;;;;;;5008345;28;20029;-78
2023/07/20 10:11:52;;;;;;;5.28;4.00;;;21.00;78.60;;;;;;5011338;28;20029;-76
2023/07/20 10:14:20;;;;;;;3.80;3.28;;;21.20;81.00;;;;;;5008291;28;20021;-79
2023/07/20 10:16:58;;;;;;;4.20;3.50;;;21.30;75.70;;;;;;5011483;28;20116;-76
2023/07/20 10:19:33;;;;;;;3.63;3.33;;;21.30;75.40;;;;;;5012472;28;20120;-76
2023/07/20 10:22:14;;;;;;;5.10;3.08;;;21.00;77.50;;;;;;5010332;28;20030;-77
2023/07/20 10:24:44;;;;;;;3.42;3.00;;;21.00;76.80;;;;;;5010634;28;20678;-77
2023/07/20 10:27:10;;;;;;;4.70;3.22;;;20.90;77.00;;;;;;5008369;28;20022;-79
2023/07/20 10:29:36;;;;;;;5.00;3.33;;;20.90;75.70;;;;;;5003838;28;20052;-79
2023/07/20 10:32:02;;;;;;;7.20;4.15;;;20.90;76.80;;;;;;5002119;28;20075;-79
2023/07/20 10:34:28;;;;;;;3.88;2.97;;;21.00;79.40;;;;;;5009300;28;20548;-79
2023/07/20 10:36:54;;;;;;;5.88;4.07;;;21.20;78.10;;;;;;5012185;28;20077;-79
2023/07/20 10:39:33;;;;;;;6.05;3.42;;;21.20;76.10;;;;;;5011269;28;20029;-79
2023/07/20 10:42:08;;;;;;;4.93;3.90;;;21.50;75.00;;;;;;5012431;28;20034;-79
2023/07/20 10:44:37;;;;;;;4.25;2.85;;;21.80;73.90;;;;;;5011019;28;20109;-77
2023/07/20 10:47:08;;;;;;;2.90;2.70;;;22.20;75.20;;;;;;5012032;28;20530;-77
2023/07/20 10:49:35;;;;;;;3.67;3.30;;;22.40;70.70;;;;;;5000917;28;20045;-77
2023/07/20 10:52:06;;;;;;;4.90;3.13;;;22.50;68.20;;;;;;5012041;28;20018;-77
2023/07/20 10:54:31;;;;;;;3.88;3.20;;;22.70;67.60;;;;;;5002189;28;20025;-80
2023/07/20 10:57:18;;;;;;;3.50;3.17;;;22.60;66.20;;;;;;5011705;28;20029;-77
2023/07/20 10:59:47;;;;;;;3.10;2.72;;;22.80;64.80;;;;;;5004113;28;20061;-80
2023/07/20 11:02:12;;;;;;;4.13;3.15;;;22.70;65.20;;;;;;5011275;28;20101;-80
2023/07/20 11:04:40;;;;;;;3.67;3.30;;;22.20;68.30;;;;;;5004461;28;20057;-77
2023/07/20 11:07:06;;;;;;;3.50;3.17;;;21.90;68.40;;;;;;5012042;28;20360;-77
2023/07/20 11:09:38;;;;;;;4.55;3.42;;;21.90;69.20;;;;;;5005365;28;20395;-78
2023/07/20 11:12:18;;;;;;;5.25;3.40;;;22.30;70.00;;;;;;5011271;28;20022;-79
2023/07/20 11:14:54;;;;;;;3.70;3.15;;;22.40;69.60;;;;;;5010351;28;20049;-77
2023/07/20 11:17:22;;;;;;;3.05;2.78;;;22.70;69.80;;;;;;5011976;28;20030;-77
2023/07/20 11:19:56;;;;;;;3.97;3.10;;;23.00;67.50;;;;;;5005414;28;20041;-79
2023/07/20 11:22:22;;;;;;;5.50;3.35;;;23.20;66.60;;;;;;5011757;28;20036;-79
2023/07/20 11:24:49;;;;;;;3.40;3.10;;;23.10;62.80;;;;;;5009259;28;20440;-79
2023/07/20 11:27:15;;;;;;;3.28;3.00;;;22.70;65.00;;;;;;5010430;28;20067;-76
2023/07/20 11:29:40;;;;;;;3.42;3.13;;;22.00;66.00;;;;;;5007224;28;20796;-79
2023/07/20 11:32:06;;;;;;;5.07;3.42;;;21.60;67.60;;;;;;4999611;28;20065;-77
2023/07/20 11:34:34;;;;;;;3.00;2.80;;;21.80;68.70;;;;;;5010103;28;20022;-79
2023/07/20 11:37:00;;;;;;;3.58;3.28;;;21.80;70.10;;;;;;5010400;28;20022;-77
2023/07/20 11:39:26;;;;;;;3.95;2.72;;;22.00;69.80;;;;;;5006701;28;20029;-77
2023/07/20 11:41:53;;;;;;;3.40;2.40;;;22.20;67.30;;;;;;5002996;28;20026;-77
2023/07/20 11:44:27;;;;;;;3.67;2.85;;;22.40;64.00;;;;;;5011338;28;20429;-79
2023/07/20 11:47:19;;;;;;;3.30;3.00;;;22.90;65.70;;;;;;5011340;28;20105;-77
2023/07/20 11:49:49;;;;;;;2.67;2.47;;;23.50;63.90;;;;;;5013821;28;20121;-77
2023/07/20 11:52:16;;;;;;;2.10;1.90;;;23.70;61.60;;;;;;5011042;28;20252;-76
2023/07/20 11:54:42;;;;;;;2.65;1.85;;;23.90;59.80;;;;;;5011424;28;20057;-77
2023/07/20 11:57:16;;;;;;;2.90;2.38;;;24.20;60.60;;;;;;5010040;28;20022;-80
2023/07/20 11:59:55;;;;;;;2.38;2.05;;;24.20;60.50;;;;;;5010045;28;20513;-79
2023/07/20 12:02:21;;;;;;;4.13;2.15;;;24.40;59.80;;;;;;5009992;28;20034;-79
2023/07/20 12:04:47;;;;;;;3.45;2.10;;;24.30;57.30;;;;;;5009366;28;20026;-79
2023/07/20 12:07:13;;;;;;;2.13;1.50;;;24.20;56.70;;;;;;5011181;28;20044;-79
2023/07/20 12:09:39;;;;;;;2.83;2.10;;;23.90;57.40;;;;;;5009611;28;20471;-77
2023/07/20 12:12:13;;;;;;;1.83;1.70;;;23.90;56.10;;;;;;5011104;28;20034;-77
2023/07/20 12:14:39;;;;;;;2.72;2.10;;;24.20;56.50;;;;;;5010847;28;20417;-79
2023/07/20 12:17:07;;;;;;;3.00;2.00;;;24.30;57.10;;;;;;5010882;28;20100;-79
2023/07/20 12:19:39;;;;;;;3.63;2.35;;;24.20;56.30;;;;;;5010587;28;20125;-80
2023/07/20 12:22:06;;;;;;;2.03;1.92;;;24.40;56.40;;;;;;5010855;28;20033;-77
2023/07/20 12:24:31;;;;;;;2.55;2.17;;;24.50;56.70;;;;;;5009271;28;20066;-79
2023/07/20 12:26:58;;;;;;;3.47;1.92;;;24.30;55.90;;;;;;5009476;28;20025;-79
2023/07/20 12:29:24;;;;;;;3.65;2.00;;;24.30;56.40;;;;;;5006940;28;20037;-77
2023/07/20 12:31:50;;;;;;;1.98;1.77;;;24.10;56.50;;;;;;4998994;28;20030;-79
2023/07/20 12:34:15;;;;;;;2.35;1.98;;;24.30;57.00;;;;;;5010196;28;20029;-79
2023/07/20 12:36:41;;;;;;;2.95;1.85;;;24.50;57.60;;;;;;5009353;28;20111;-77
2023/07/20 12:39:07;;;;;;;6.80;1.90;;;24.50;55.90;;;;;;5010374;28;20071;-78
2023/07/20 12:41:32;;;;;;;1.92;1.67;;;24.80;56.40;;;;;;5010318;28;20063;-79